createdAt,value
2018-02-22T00:01:35.887Z,0.60
2018-02-22T00:04:03.350Z,0.60
2018-02-22T00:06:30.774Z,0.60
2018-02-22T00:08:58.194Z,0.60
2018-02-22T00:11:25.606Z,0.60
2018-02-22T00:13:53.058Z,0.70
2018-02-22T00:16:20.515Z,0.70
2018-02-22T00:18:47.985Z,0.70
2018-02-22T00:21:15.416Z,0.70
2018-02-22T00:23:43.681Z,0.70
2018-02-22T00:26:11.093Z,0.70
2018-02-22T00:28:38.520Z,0.70
2018-02-22T00:31:05.930Z,0.70
2018-02-22T00:33:33.349Z,0.60
2018-02-22T00:36:00.782Z,0.50
2018-02-22T00:38:28.249Z,0.50
2018-02-22T00:40:56.451Z,0.40
2018-02-22T00:43:23.889Z,0.40
2018-02-22T00:45:51.306Z,0.30
2018-02-22T00:48:18.736Z,0.30
2018-02-22T00:50:46.149Z,0.20
2018-02-22T00:53:13.574Z,0.20
2018-02-22T00:55:40.982Z,0.20
2018-02-22T00:58:08.386Z,0.30
2018-02-22T01:00:35.797Z,0.30
2018-02-22T01:03:03.205Z,0.30
2018-02-22T01:05:30.732Z,0.40
2018-02-22T01:07:58.146Z,0.40
2018-02-22T01:10:26.383Z,0.40
2018-02-22T01:12:53.793Z,0.40
2018-02-22T01:15:21.244Z,0.40
2018-02-22T01:17:48.693Z,0.40
2018-02-22T01:20:16.206Z,0.40
2018-02-22T01:22:43.602Z,0.40
2018-02-22T01:25:11.825Z,0.20
2018-02-22T01:27:39.233Z,0.20
2018-02-22T01:30:06.666Z,0.20
2018-02-22T01:32:34.106Z,0.20
2018-02-22T01:35:01.524Z,0.20
2018-02-22T01:37:29.024Z,0.20
2018-02-22T01:39:57.237Z,0.20
2018-02-22T01:42:24.661Z,0.20
2018-02-22T01:44:52.071Z,0.20
2018-02-22T01:47:19.530Z,0.20
2018-02-22T01:49:46.949Z,0.30
2018-02-22T01:52:14.406Z,0.20
2018-02-22T01:54:43.381Z,0.30
2018-02-22T01:57:11.633Z,0.30
2018-02-22T01:59:39.044Z,0.20
2018-02-22T02:02:07.249Z,0.30
2018-02-22T02:04:35.410Z,0.30
2018-02-22T02:07:02.851Z,0.30
2018-02-22T02:09:30.943Z,0.20
2018-02-22T02:11:59.129Z,0.10
2018-02-22T02:14:26.789Z,0.10
2018-02-22T02:16:54.272Z,0.10
2018-02-22T02:19:21.721Z,0.00
2018-02-22T02:21:49.136Z,0.10
2018-02-22T02:24:16.543Z,0.10
2018-02-22T02:26:43.980Z,0.00
2018-02-22T02:29:11.402Z,0.00
2018-02-22T02:31:38.818Z,0.00
2018-02-22T02:34:07.043Z,0.00
2018-02-22T02:36:34.470Z,0.00
2018-02-22T02:39:01.880Z,-0.10
2018-02-22T02:41:29.301Z,0.00
2018-02-22T02:43:56.702Z,0.00
2018-02-22T02:46:24.115Z,-0.10
2018-02-22T02:48:51.536Z,-0.10
2018-02-22T02:51:18.964Z,-0.10
2018-02-22T02:53:46.399Z,-0.10
2018-02-22T02:56:14.578Z,-0.20
2018-02-22T02:58:42.026Z,-0.20
2018-02-22T03:01:09.495Z,-0.10
2018-02-22T03:03:36.960Z,-0.20
2018-02-22T03:06:04.393Z,-0.20
2018-02-22T03:08:31.803Z,-0.20
2018-02-22T03:10:59.214Z,-0.30
2018-02-22T03:13:26.633Z,-0.30
2018-02-22T03:15:54.043Z,-0.50
2018-02-22T03:18:22.253Z,-0.60
2018-02-22T03:20:49.721Z,-0.60
2018-02-22T03:23:18.027Z,-0.70
2018-02-22T03:25:45.445Z,-0.70
2018-02-22T03:28:12.858Z,-0.60
2018-02-22T03:30:40.311Z,-0.60
2018-02-22T03:33:07.729Z,-0.60
2018-02-22T03:35:35.147Z,-0.70
2018-02-22T03:38:02.579Z,-0.80
2018-02-22T03:40:30.093Z,-0.70
2018-02-22T03:42:57.505Z,-0.70
2018-02-22T03:45:24.934Z,-0.60
2018-02-22T03:47:52.353Z,-0.70
2018-02-22T03:50:19.773Z,-0.70
2018-02-22T03:52:47.227Z,-0.70
2018-02-22T03:55:14.663Z,-0.80
2018-02-22T03:57:42.073Z,-0.70
2018-02-22T04:00:09.495Z,-0.70
2018-02-22T04:02:37.669Z,-0.70
2018-02-22T04:05:05.110Z,-0.70
2018-02-22T04:07:32.577Z,-0.60
2018-02-22T04:09:59.989Z,-0.60
2018-02-22T04:12:27.417Z,-0.60
2018-02-22T04:14:54.841Z,-0.70
2018-02-22T04:17:23.046Z,-0.70
2018-02-22T04:19:50.475Z,-0.70
2018-02-22T04:22:17.882Z,-0.70
2018-02-22T04:24:45.382Z,-0.80
2018-02-22T04:27:12.790Z,-0.80
2018-02-22T04:29:40.977Z,-0.80
2018-02-22T04:32:09.183Z,-0.70
2018-02-22T04:34:36.663Z,-0.80
2018-02-22T04:37:04.064Z,-0.80
2018-02-22T04:39:31.486Z,-0.80
2018-02-22T04:41:58.910Z,-0.80
2018-02-22T04:44:26.434Z,-0.80
2018-02-22T04:46:53.893Z,-0.80
2018-02-22T04:49:21.390Z,-0.80
2018-02-22T04:51:48.797Z,-0.80
2018-02-22T04:54:16.987Z,-0.80
2018-02-22T04:56:44.490Z,-0.80
2018-02-22T04:59:11.953Z,-0.70
2018-02-22T05:45:20.818Z,-0.70
2018-02-22T05:47:48.248Z,-1.20
2018-02-22T05:50:16.475Z,-1.10
2018-02-22T05:52:43.907Z,-1.20
2018-02-22T05:55:11.388Z,-1.10
2018-02-22T05:57:38.801Z,-1.00
2018-02-22T06:00:06.218Z,-1.00
2018-02-22T06:02:33.684Z,-1.00
2018-02-22T06:05:01.065Z,-1.00
2018-02-22T06:07:28.473Z,-1.00
2018-02-22T06:09:55.997Z,-1.00
2018-02-22T06:12:23.414Z,-1.10
2018-02-22T06:14:50.830Z,-1.10
2018-02-22T06:17:18.248Z,-1.10
2018-02-22T06:19:45.685Z,-1.10
2018-02-22T06:22:13.164Z,-1.00
2018-02-22T06:24:40.572Z,-1.00
2018-02-22T06:27:08.758Z,-1.00
2018-02-22T06:29:36.985Z,-1.00
2018-02-22T06:32:04.429Z,-1.00
2018-02-22T06:34:32.623Z,-1.00
2018-02-22T06:37:00.110Z,-1.00
2018-02-22T06:39:27.502Z,-1.00
2018-02-22T06:41:54.918Z,-1.10
2018-02-22T06:44:23.117Z,-1.40
2018-02-22T06:46:50.595Z,-1.40
2018-02-22T06:49:18.019Z,-1.40
2018-02-22T06:51:45.550Z,-1.50
2018-02-22T06:54:13.016Z,-1.50
2018-02-22T06:56:40.684Z,-1.40
2018-02-22T06:59:08.148Z,-1.30
2018-02-22T07:01:35.625Z,-1.30
2018-02-22T07:04:03.045Z,-1.20
2018-02-22T07:06:31.243Z,-1.20
2018-02-22T07:08:59.434Z,-1.20
2018-02-22T07:11:26.863Z,-1.20
2018-02-22T07:13:54.297Z,-1.10
2018-02-22T07:16:22.653Z,-1.00
2018-02-22T07:18:50.054Z,-1.00
2018-02-22T07:21:17.461Z,-1.10
2018-02-22T07:23:46.423Z,-1.20
2018-02-22T07:26:13.835Z,-1.20
2018-02-22T07:28:41.247Z,-1.20
2018-02-22T07:31:08.722Z,-1.30
2018-02-22T07:33:36.869Z,-1.40
2018-02-22T07:36:04.381Z,-1.40
2018-02-22T07:38:31.794Z,-1.50
2018-02-22T07:40:59.222Z,-1.40
2018-02-22T07:43:26.650Z,-1.40
2018-02-22T07:45:54.840Z,-1.30
2018-02-22T07:48:23.021Z,-1.40
2018-02-22T07:50:50.438Z,-1.50
2018-02-22T07:53:17.850Z,-1.50
2018-02-22T07:55:45.283Z,-1.40
2018-02-22T07:58:12.773Z,-1.40
2018-02-22T08:00:40.193Z,-1.30
2018-02-22T08:03:07.599Z,-1.20
2018-02-22T08:05:35.032Z,-1.00
2018-02-22T08:08:02.431Z,-1.00
2018-02-22T08:10:29.839Z,-1.00
2018-02-22T08:12:58.054Z,-1.20
2018-02-22T08:15:26.254Z,-1.20
2018-02-22T08:17:53.669Z,-1.10
2018-02-22T08:20:21.102Z,-1.00
2018-02-22T08:22:48.541Z,-1.00
2018-02-22T08:25:16.015Z,-0.80
2018-02-22T08:27:44.187Z,-0.80
2018-02-22T08:30:11.605Z,-0.90
2018-02-22T08:32:39.018Z,-0.70
2018-02-22T08:35:06.502Z,-0.70
2018-02-22T08:37:33.926Z,-0.70
2018-02-22T08:40:01.336Z,-0.80
2018-02-22T08:42:28.769Z,-0.70
2018-02-22T08:44:56.285Z,-0.60
2018-02-22T08:47:23.810Z,-0.50
2018-02-22T08:49:51.207Z,-0.30
2018-02-22T08:52:18.738Z,-0.20
2018-02-22T08:54:46.359Z,-0.10
2018-02-22T08:57:13.761Z,0.00
2018-02-22T08:59:41.170Z,-0.20
2018-02-22T09:02:09.355Z,0.00
2018-02-22T09:04:37.527Z,-0.10
2018-02-22T09:07:04.968Z,-0.10
2018-02-22T09:09:32.405Z,-0.10
2018-02-22T09:11:59.818Z,-0.10
2018-02-22T09:14:27.233Z,0.00
2018-02-22T09:16:54.646Z,0.10
2018-02-22T09:19:22.094Z,0.10
2018-02-22T09:21:49.504Z,0.00
2018-02-22T09:24:17.038Z,0.00
2018-02-22T09:26:44.508Z,0.10
2018-02-22T09:29:11.985Z,0.10
2018-02-22T09:31:39.435Z,0.10
2018-02-22T09:34:06.861Z,-0.10
2018-02-22T09:36:34.321Z,-0.20
2018-02-22T09:39:01.697Z,-0.30
2018-02-22T09:41:29.214Z,-0.10
2018-02-22T09:43:56.613Z,0.00
2018-02-22T09:46:24.034Z,0.20
2018-02-22T09:48:51.600Z,0.40
2018-02-22T09:51:19.052Z,0.50
2018-02-22T09:53:47.256Z,0.70
2018-02-22T09:56:14.666Z,0.70
2018-02-22T09:58:42.178Z,0.70
2018-02-22T10:01:09.612Z,0.70
2018-02-22T10:03:37.013Z,0.80
2018-02-22T10:06:05.196Z,0.80
2018-02-22T10:08:33.402Z,1.00
2018-02-22T10:11:01.547Z,1.10
2018-02-22T10:13:28.966Z,1.10
2018-02-22T10:15:56.394Z,1.20
2018-02-22T10:18:24.642Z,1.40
2018-02-22T10:20:52.074Z,1.40
2018-02-22T10:23:19.549Z,1.40
2018-02-22T10:25:46.959Z,1.60
2018-02-22T10:28:14.494Z,1.80
2018-02-22T10:30:41.914Z,1.80
2018-02-22T10:33:10.810Z,2.10
2018-02-22T10:35:38.233Z,2.10
2018-02-22T10:38:05.691Z,2.40
2018-02-22T10:40:33.110Z,2.10
2018-02-22T10:43:00.539Z,2.20
2018-02-22T10:45:28.728Z,2.20
2018-02-22T10:47:56.131Z,2.20
2018-02-22T10:50:23.557Z,2.20
2018-02-22T10:52:50.961Z,2.20
2018-02-22T10:55:18.507Z,2.30
2018-02-22T10:57:45.899Z,2.20
2018-02-22T11:00:13.335Z,2.20
2018-02-22T11:02:59.455Z,2.30
2018-02-22T11:05:26.852Z,2.30
2018-02-22T11:07:54.270Z,2.50
2018-02-22T11:10:21.690Z,2.70
2018-02-22T11:12:49.217Z,2.80
2018-02-22T11:15:17.394Z,3.00
2018-02-22T11:17:44.875Z,3.00
2018-02-22T11:20:12.273Z,3.30
2018-02-22T11:22:39.705Z,3.40
2018-02-22T11:25:07.122Z,3.50
2018-02-22T11:27:34.534Z,3.50
2018-02-22T11:30:01.965Z,3.60
2018-02-22T11:32:29.366Z,3.60
2018-02-22T11:34:56.832Z,3.90
2018-02-22T11:37:25.024Z,4.70
2018-02-22T11:39:53.219Z,5.20
2018-02-22T11:42:20.632Z,5.20
2018-02-22T11:44:48.032Z,5.60
2018-02-22T11:47:16.342Z,5.30
2018-02-22T11:49:43.797Z,5.30
2018-02-22T11:52:11.221Z,4.60
2018-02-22T11:54:38.642Z,4.20
2018-02-22T11:57:06.077Z,3.90
2018-02-22T11:59:34.257Z,3.90
2018-02-22T12:02:02.461Z,3.90
2018-02-22T12:04:29.954Z,3.90
2018-02-22T12:06:57.379Z,4.10
2018-02-22T12:09:24.894Z,5.50
2018-02-22T12:11:52.314Z,7.90
2018-02-22T12:14:19.834Z,10.30
2018-02-22T12:16:47.997Z,10.00
2018-02-22T12:19:15.458Z,10.00
2018-02-22T12:21:43.777Z,9.10
2018-02-22T12:24:11.178Z,9.10
2018-02-22T12:26:38.606Z,9.50
2018-02-22T12:31:40.662Z,7.70
2018-02-22T12:34:08.188Z,7.70
2018-02-22T12:36:35.583Z,8.10
2018-02-22T12:39:03.023Z,7.80
2018-02-22T12:41:30.433Z,7.70
2018-02-22T12:43:57.901Z,7.90
2018-02-22T12:46:25.301Z,8.30
2018-02-22T12:48:53.621Z,6.10
2018-02-22T12:51:21.024Z,6.00
2018-02-22T12:53:48.445Z,4.90
2018-02-22T12:56:15.862Z,5.50
2018-02-22T12:58:43.281Z,6.70
2018-02-22T13:01:10.697Z,7.00
2018-02-22T13:03:38.110Z,6.10
2018-02-22T13:06:06.295Z,5.70
2018-02-22T13:08:34.473Z,6.40
2018-02-22T13:11:02.668Z,6.20
2018-02-22T13:13:30.822Z,6.40
2018-02-22T13:15:58.321Z,6.40
2018-02-22T13:18:25.806Z,6.70
2018-02-22T13:20:53.285Z,7.60
2018-02-22T13:23:20.685Z,7.50
2018-02-22T13:25:48.113Z,6.80
2018-02-22T13:28:15.578Z,6.80
2018-02-22T13:30:43.047Z,7.50
2018-02-22T13:33:22.398Z,7.30
2018-02-22T13:35:49.826Z,7.30
2018-02-22T13:38:29.235Z,7.60
2018-02-22T13:40:56.658Z,7.80
2018-02-22T13:43:24.845Z,8.00
2018-02-22T13:45:53.017Z,8.00
2018-02-22T13:48:21.199Z,9.00
2018-02-22T13:51:00.662Z,9.00
2018-02-22T13:53:28.878Z,8.20
2018-02-22T13:55:56.290Z,8.20
2018-02-22T13:58:23.698Z,7.70
2018-02-22T14:01:03.062Z,8.00
2018-02-22T14:03:30.466Z,8.10
2018-02-22T14:05:57.895Z,9.10
2018-02-22T14:08:37.281Z,10.20
2018-02-22T14:11:04.718Z,10.60
2018-02-22T14:13:32.877Z,10.10
2018-02-22T14:16:01.083Z,9.30
2018-02-22T14:18:28.506Z,9.30
2018-02-22T14:20:56.017Z,8.40
2018-02-22T14:23:23.426Z,7.20
2018-02-22T14:25:50.838Z,6.50
2018-02-22T14:28:19.023Z,5.10
2018-02-22T14:30:47.228Z,4.80
2018-02-22T14:33:15.401Z,4.50
2018-02-22T14:35:42.893Z,4.50
2018-02-22T14:38:10.351Z,4.50
2018-02-22T14:40:37.782Z,4.50
2018-02-22T14:43:05.220Z,4.60
2018-02-22T14:45:32.644Z,4.60
2018-02-22T14:48:00.059Z,4.40
2018-02-22T14:50:27.473Z,4.40
2018-02-22T14:52:54.953Z,4.30
2018-02-22T14:55:23.141Z,4.10
2018-02-22T14:57:51.340Z,4.30
2018-02-22T15:00:18.753Z,4.30
2018-02-22T15:02:46.186Z,4.40
2018-02-22T15:05:13.590Z,4.40
2018-02-22T15:07:41.056Z,4.40
2018-02-22T15:10:08.482Z,4.40
2018-02-22T15:12:35.938Z,4.40
2018-02-22T15:15:03.419Z,4.50
2018-02-22T15:17:30.950Z,4.50
2018-02-22T15:19:59.169Z,4.50
2018-02-22T15:22:26.581Z,4.40
2018-02-22T15:24:53.995Z,4.30
2018-02-22T15:27:21.477Z,4.30
2018-02-22T15:29:48.953Z,4.30
2018-02-22T15:32:16.393Z,4.10
2018-02-22T15:34:44.582Z,4.00
2018-02-22T15:37:11.999Z,4.00
2018-02-22T15:39:39.413Z,4.00
2018-02-22T15:42:06.834Z,4.00
2018-02-22T15:44:34.248Z,4.10
2018-02-22T15:47:02.413Z,4.00
2018-02-22T15:49:30.600Z,4.00
2018-02-22T15:51:58.021Z,4.00
2018-02-22T15:54:25.433Z,4.00
2018-02-22T15:56:52.846Z,4.00
2018-02-22T15:59:20.266Z,3.90
2018-02-22T16:01:48.456Z,3.80
2018-02-22T16:04:15.982Z,3.80
2018-02-22T16:06:43.389Z,3.80
2018-02-22T16:09:10.813Z,3.80
2018-02-22T16:11:38.214Z,3.70
2018-02-22T16:14:05.747Z,3.60
2018-02-22T16:16:33.149Z,3.60
2018-02-22T16:19:00.554Z,3.60
2018-02-22T16:21:28.974Z,3.50
2018-02-22T16:23:56.366Z,3.50
2018-02-22T16:26:23.786Z,3.50
2018-02-22T16:28:51.972Z,3.40
2018-02-22T16:31:19.445Z,3.40
2018-02-22T16:33:46.861Z,3.40
2018-02-22T16:36:14.270Z,3.40
2018-02-22T16:38:42.466Z,3.20
2018-02-22T16:41:09.877Z,3.20
2018-02-22T16:43:37.290Z,3.20
2018-02-22T16:46:05.489Z,3.10
2018-02-22T16:48:33.644Z,3.10
2018-02-22T16:51:01.834Z,3.10
2018-02-22T16:53:29.262Z,3.10
2018-02-22T16:55:56.678Z,3.10
2018-02-22T16:58:24.890Z,3.10
2018-02-22T17:00:52.308Z,3.10
2018-02-22T17:03:19.737Z,3.00
2018-02-22T17:05:47.167Z,3.00
2018-02-22T17:08:15.386Z,3.10
2018-02-22T17:10:42.825Z,3.10
2018-02-22T17:13:10.987Z,3.00
2018-02-22T17:15:38.402Z,3.00
2018-02-22T17:18:05.814Z,3.00
2018-02-22T17:20:33.243Z,3.00
2018-02-22T17:23:00.715Z,3.00
2018-02-22T17:25:27.641Z,3.00
2018-02-22T17:28:01.675Z,2.90
2018-02-22T17:30:35.659Z,2.80
2018-02-22T17:33:03.060Z,2.80
2018-02-22T17:38:43.781Z,2.70
2018-02-22T17:41:11.268Z,2.70
2018-02-22T17:43:38.627Z,2.70
2018-02-22T17:46:06.077Z,2.70
2018-02-22T17:48:34.269Z,2.70
2018-02-22T17:51:02.450Z,2.70
2018-02-22T17:53:30.621Z,2.70
2018-02-22T17:55:58.806Z,2.70
2018-02-22T17:58:26.261Z,2.70
2018-02-22T18:00:54.042Z,2.70
2018-02-22T18:03:21.448Z,2.70
2018-02-22T18:05:48.870Z,2.70
2018-02-22T18:08:16.417Z,2.60
2018-02-22T18:10:43.854Z,2.60
2018-02-22T18:13:11.382Z,2.60
2018-02-22T18:15:38.808Z,2.60
2018-02-22T18:18:06.210Z,2.70
2018-02-22T18:20:33.651Z,2.60
2018-02-22T18:23:01.059Z,2.60
2018-02-22T18:25:28.470Z,2.70
2018-02-22T18:27:55.932Z,2.70
2018-02-22T18:30:24.093Z,2.70
2018-02-22T18:32:51.599Z,2.70
2018-02-22T18:35:19.009Z,2.70
2018-02-22T18:37:52.202Z,2.70
2018-02-22T18:40:25.222Z,2.70
2018-02-22T18:42:52.646Z,2.60
2018-02-22T18:45:20.074Z,2.60
2018-02-22T18:47:48.301Z,2.50
2018-02-22T18:50:15.759Z,2.50
2018-02-22T18:52:43.166Z,2.50
2018-02-22T18:55:10.592Z,2.40
2018-02-22T18:57:38.055Z,2.40
2018-02-22T19:00:05.537Z,2.30
2018-02-22T19:02:32.958Z,2.30
2018-02-22T19:05:00.374Z,2.30
2018-02-22T19:07:27.785Z,2.30
2018-02-22T19:09:55.205Z,2.20
2018-02-22T19:12:22.644Z,2.30
2018-02-22T19:14:50.834Z,2.30
2018-02-22T19:17:19.011Z,2.30
2018-02-22T19:19:47.199Z,2.40
2018-02-22T19:22:15.406Z,2.30
2018-02-22T19:24:42.833Z,2.30
2018-02-22T19:27:10.254Z,2.30
2018-02-22T19:29:37.723Z,2.30
2018-02-22T19:32:05.135Z,2.30
2018-02-22T19:34:32.553Z,2.30
2018-02-22T19:36:59.980Z,2.20
2018-02-22T19:39:27.486Z,2.20
2018-02-22T19:41:54.895Z,2.30
2018-02-22T19:44:22.327Z,2.30
2018-02-22T19:46:50.505Z,2.30
2018-02-22T19:49:18.013Z,2.20
2018-02-22T19:51:45.426Z,2.30
2018-02-22T19:54:13.628Z,2.20
2018-02-22T19:56:41.039Z,2.20
2018-02-22T19:59:08.466Z,2.20
2018-02-22T20:01:36.022Z,2.10
2018-02-22T20:05:59.394Z,2.20
2018-02-22T20:08:26.925Z,2.20
2018-02-22T20:10:54.383Z,2.20
2018-02-22T20:13:23.507Z,2.20
2018-02-22T20:15:50.921Z,2.20
2018-02-22T20:18:18.334Z,2.20
2018-02-22T20:20:45.762Z,2.20
2018-02-22T20:23:13.943Z,2.00
2018-02-22T20:25:42.119Z,2.00
2018-02-22T20:28:09.634Z,2.00
2018-02-22T20:30:37.058Z,2.10
2018-02-22T20:33:04.467Z,2.10
2018-02-22T20:35:31.943Z,2.10
2018-02-22T20:38:00.105Z,2.20
2018-02-22T20:40:28.290Z,2.20
2018-02-22T20:42:56.495Z,2.20
2018-02-22T20:45:23.958Z,2.20
2018-02-22T20:47:51.378Z,2.10
2018-02-22T20:50:18.916Z,2.10
2018-02-22T20:52:52.053Z,2.10
2018-02-22T20:55:23.389Z,2.00
2018-02-22T20:57:50.806Z,2.10
2018-02-22T21:00:18.210Z,2.10
2018-02-22T21:02:45.629Z,2.20
2018-02-22T21:05:13.094Z,2.20
2018-02-22T21:07:40.609Z,2.20
2018-02-22T21:10:08.772Z,2.10
2018-02-22T21:12:36.941Z,2.10
2018-02-22T21:15:04.367Z,2.00
2018-02-22T21:17:31.787Z,2.10
2018-02-22T21:20:00.413Z,2.10
2018-02-22T21:22:28.562Z,2.00
2018-02-22T21:24:56.882Z,2.00
2018-02-22T21:27:25.238Z,1.90
2018-02-22T21:29:52.852Z,1.90
2018-02-22T21:32:20.318Z,2.00
2018-02-22T21:34:48.500Z,1.90
2018-02-22T21:37:15.902Z,1.90
2018-02-22T21:39:43.323Z,1.90
2018-02-22T21:42:10.751Z,1.90
2018-02-22T21:44:38.168Z,2.00
2018-02-22T21:47:05.592Z,2.00
2018-02-22T21:49:33.319Z,1.90
2018-02-22T21:52:01.503Z,2.00
2018-02-22T21:54:28.918Z,2.00
2018-02-22T21:56:56.501Z,2.00
2018-02-22T21:59:24.830Z,2.10
2018-02-22T22:01:52.243Z,2.10
2018-02-22T22:04:19.720Z,2.00
2018-02-22T22:06:47.141Z,2.10
2018-02-22T22:09:14.607Z,2.10
2018-02-22T22:11:42.008Z,2.10
2018-02-22T22:14:09.423Z,2.10
2018-02-22T22:16:37.610Z,2.00
2018-02-22T22:19:05.018Z,2.00
2018-02-22T22:21:32.453Z,2.10
2018-02-22T22:23:59.879Z,2.10
2018-02-22T22:26:27.285Z,2.00
2018-02-22T22:28:55.959Z,1.90
2018-02-22T22:31:23.385Z,1.80
2018-02-22T22:33:50.826Z,1.80
2018-02-22T22:36:18.237Z,1.80
2018-02-22T22:38:45.676Z,1.80
2018-02-22T22:41:13.093Z,1.80
2018-02-22T22:43:40.498Z,1.80
2018-02-22T22:46:07.913Z,1.80
2018-02-22T22:48:36.147Z,1.90
2018-02-22T22:51:03.577Z,1.80
2018-02-22T22:53:30.994Z,1.90
2018-02-22T22:55:58.454Z,1.80
2018-02-22T22:58:25.866Z,1.80
2018-02-22T23:00:53.289Z,1.70
2018-02-22T23:03:21.585Z,1.70
2018-02-22T23:05:48.989Z,1.60
2018-02-22T23:08:16.412Z,1.70
2018-02-22T23:10:43.878Z,1.70
2018-02-22T23:13:11.370Z,1.70
2018-02-22T23:15:38.823Z,1.70
2018-02-22T23:18:06.992Z,1.60
2018-02-22T23:20:35.186Z,1.60
2018-02-22T23:23:02.598Z,1.60
2018-02-22T23:25:30.015Z,1.60
2018-02-22T23:27:58.193Z,1.50
2018-02-22T23:30:26.806Z,1.60
2018-02-22T23:32:54.214Z,1.60
2018-02-22T23:35:21.626Z,1.50
2018-02-22T23:37:49.826Z,1.50
2018-02-22T23:40:23.789Z,1.50
2018-02-22T23:42:51.210Z,1.50
2018-02-22T23:45:19.442Z,1.50
2018-02-22T23:47:46.826Z,1.50
2018-02-22T23:50:14.261Z,1.40
2018-02-22T23:52:41.713Z,1.40
2018-02-22T23:55:09.166Z,1.40
2018-02-22T23:57:36.684Z,1.40
